Time;durP1;ratioP1;P1;durP2;ratioP2;P2;SDS_P1;SDS_P2;PMS_P1;PMS_P2;Temp;Humidity;BMP_temperature;BMP_pressure;BME280_temperature;BME280_humidity;BME280_pressure;Samples;Min_cycle;Max_cycle;Signal;HPM_P1;HPM_P2
2023/05/04 00:02:22;;;;;;;10.02;6.03;;;6.50;99.90;;;;;;5143395;27;20211;-35
2023/05/04 00:04:50;;;;;;;7.28;5.88;;;6.40;99.90;;;;;;5149180;27;20030;-35
2023/05/04 00:07:16;;;;;;;9.77;6.72;;;6.50;99.90;;;;;;5142348;27;20437;-35
2023/05/04 00:09:42;;;;;;;9.98;6.25;;;6.40;99.90;;;;;;5170565;27;20069;-36
2023/05/04 00:12:08;;;;;;;9.90;6.07;;;6.40;99.90;;;;;;5146790;27;20458;-35
2023/05/04 00:14:34;;;;;;;9.85;6.57;;;6.40;99.90;;;;;;5144768;27;20076;-35
2023/05/04 00:17:01;;;;;;;10.43;6.65;;;6.30;99.90;;;;;;5145904;27;20119;-36
2023/05/04 00:19:27;;;;;;;9.50;6.20;;;6.30;99.90;;;;;;5148506;27;20483;-37
2023/05/04 00:21:53;;;;;;;8.90;6.65;;;6.30;99.90;;;;;;5148625;27;20034;-37
2023/05/04 00:24:18;;;;;;;10.35;6.45;;;6.20;99.90;;;;;;5141292;27;20488;-33
2023/05/04 00:26:44;;;;;;;6.88;5.97;;;6.20;99.90;;;;;;5148718;27;20054;-35
2023/05/04 00:29:10;;;;;;;11.00;6.22;;;6.20;99.90;;;;;;5145876;27;20033;-35
2023/05/04 00:31:35;;;;;;;9.52;6.68;;;6.20;99.90;;;;;;5146007;27;20039;-35
2023/05/04 00:34:01;;;;;;;11.10;6.55;;;6.10;99.90;;;;;;5144648;27;20038;-35
2023/05/04 00:36:27;;;;;;;10.63;6.15;;;6.10;99.90;;;;;;5143915;27;20034;-37
2023/05/04 00:38:54;;;;;;;11.30;6.82;;;6.10;99.90;;;;;;5151854;27;20081;-33
2023/05/04 00:41:20;;;;;;;8.45;6.57;;;6.10;99.90;;;;;;5149728;27;20517;-36
2023/05/04 00:43:47;;;;;;;8.65;6.15;;;6.00;99.90;;;;;;5143863;27;20046;-35
2023/05/04 00:46:13;;;;;;;9.18;6.80;;;6.00;99.90;;;;;;5154264;27;20062;-36
2023/05/04 00:48:40;;;;;;;10.80;7.30;;;6.00;99.90;;;;;;5150504;27;20041;-36
2023/05/04 00:51:06;;;;;;;8.43;6.95;;;6.00;99.90;;;;;;5146723;27;20032;-36
2023/05/04 00:53:34;;;;;;;11.02;6.55;;;5.90;99.90;;;;;;5156939;27;20038;-36
2023/05/04 00:56:01;;;;;;;10.10;6.60;;;5.90;99.90;;;;;;5143915;27;20390;-35
2023/05/04 00:58:26;;;;;;;8.95;7.03;;;5.90;99.90;;;;;;5156922;27;20030;-35
2023/05/04 01:00:52;;;;;;;9.60;6.88;;;5.90;99.90;;;;;;5145454;27;20062;-33
2023/05/04 01:03:18;;;;;;;9.80;6.63;;;5.80;99.90;;;;;;5150668;27;20069;-35
2023/05/04 01:06:01;;;;;;;11.50;6.93;;;5.80;99.90;;;;;;5144849;27;20107;-35
2023/05/04 01:08:31;;;;;;;10.27;6.78;;;5.80;99.90;;;;;;5153330;27;20034;-34
2023/05/04 01:11:07;;;;;;;10.73;6.88;;;5.80;99.90;;;;;;5146222;27;20034;-35
2023/05/04 01:13:34;;;;;;;10.55;6.80;;;5.80;99.90;;;;;;5148379;27;20504;-34
2023/05/04 01:16:01;;;;;;;9.88;6.82;;;5.70;99.90;;;;;;5147683;27;20121;-38
2023/05/04 01:18:27;;;;;;;9.23;6.50;;;5.70;99.90;;;;;;5153077;27;20038;-35
2023/05/04 01:20:52;;;;;;;11.88;7.07;;;5.70;99.90;;;;;;5147111;27;20045;-36
2023/05/04 01:23:18;;;;;;;9.93;6.68;;;5.70;99.90;;;;;;5151561;27;20117;-36
2023/05/04 01:26:17;;;;;;;9.25;6.35;;;5.60;99.90;;;;;;5146106;27;20066;-35
2023/05/04 01:28:48;;;;;;;8.60;7.15;;;5.70;99.90;;;;;;5147278;27;20499;-35
2023/05/04 01:31:16;;;;;;;11.20;7.15;;;5.70;99.90;;;;;;5148122;27;20038;-37
2023/05/04 01:33:43;;;;;;;9.18;6.63;;;5.70;99.90;;;;;;5135625;27;20041;-34
2023/05/04 01:36:10;;;;;;;13.00;6.95;;;5.70;99.90;;;;;;5140595;27;20480;-37
2023/05/04 01:38:35;;;;;;;10.32;7.72;;;5.70;99.90;;;;;;5144256;27;20084;-36
2023/05/04 01:41:01;;;;;;;10.93;6.85;;;5.60;99.90;;;;;;5156267;27;20042;-39
2023/05/04 01:43:27;;;;;;;10.90;7.18;;;5.70;99.90;;;;;;5143214;27;20041;-33
2023/05/04 01:45:53;;;;;;;10.63;7.82;;;5.70;99.90;;;;;;5154695;27;20179;-35
2023/05/04 01:48:18;;;;;;;9.63;6.60;;;5.60;99.90;;;;;;5140311;27;20398;-36
2023/05/04 01:50:44;;;;;;;12.52;7.07;;;5.60;99.90;;;;;;5144531;27;20041;-35
2023/05/04 01:53:10;;;;;;;9.95;7.07;;;5.60;99.90;;;;;;5136217;27;20083;-36
2023/05/04 01:55:35;;;;;;;12.35;7.13;;;5.70;99.90;;;;;;5146205;27;20034;-37
2023/05/04 01:58:01;;;;;;;12.63;7.72;;;5.60;99.90;;;;;;5149151;27;20132;-38
2023/05/04 02:00:27;;;;;;;14.13;7.70;;;5.70;99.90;;;;;;5145110;27;20129;-34
2023/05/04 02:02:52;;;;;;;13.02;8.38;;;5.70;99.90;;;;;;5144728;27;20415;-34
2023/05/04 02:05:18;;;;;;;8.45;6.70;;;5.60;99.90;;;;;;5149500;27;20509;-35
2023/05/04 02:07:44;;;;;;;12.68;8.23;;;5.70;99.90;;;;;;5144400;27;20094;-36
2023/05/04 02:10:10;;;;;;;12.88;7.25;;;5.70;99.90;;;;;;5150984;27;20026;-35
2023/05/04 02:12:35;;;;;;;9.25;7.30;;;5.60;99.90;;;;;;5144613;27;20038;-36
2023/05/04 02:15:01;;;;;;;11.15;7.75;;;5.60;99.90;;;;;;5146741;27;20038;-36
2023/05/04 02:17:27;;;;;;;12.15;7.47;;;5.60;99.90;;;;;;5146557;27;20484;-34
2023/05/04 02:19:53;;;;;;;12.68;7.65;;;5.60;99.90;;;;;;5153614;27;20031;-35
2023/05/04 02:22:18;;;;;;;13.13;8.15;;;5.60;99.90;;;;;;5145502;27;20034;-35
2023/05/04 02:24:44;;;;;;;11.55;7.88;;;5.60;99.90;;;;;;5149451;27;20599;-36
2023/05/04 02:27:10;;;;;;;12.88;8.32;;;5.60;99.90;;;;;;5150816;27;20106;-36
2023/05/04 02:29:37;;;;;;;12.55;7.82;;;5.60;99.90;;;;;;5142807;27;20026;-36
2023/05/04 02:32:03;;;;;;;12.10;7.82;;;5.60;99.90;;;;;;5148938;27;20066;-38
2023/05/04 02:34:30;;;;;;;11.60;9.13;;;5.60;99.90;;;;;;5144228;27;20399;-35
2023/05/04 02:36:56;;;;;;;14.07;8.80;;;5.60;99.90;;;;;;5166373;27;20063;-38
2023/05/04 02:39:21;;;;;;;9.55;8.20;;;5.70;99.90;;;;;;5155263;27;20033;-33
2023/05/04 02:41:47;;;;;;;12.55;8.15;;;5.70;99.90;;;;;;5140951;27;20171;-35
2023/05/04 02:44:14;;;;;;;12.75;8.77;;;5.70;99.90;;;;;;5139600;27;20535;-33
2023/05/04 02:46:39;;;;;;;10.63;7.82;;;5.70;99.90;;;;;;5153668;27;20119;-36
2023/05/04 02:49:05;;;;;;;12.95;8.25;;;5.60;99.90;;;;;;5146837;27;20117;-35
2023/05/04 02:51:31;;;;;;;12.55;8.27;;;5.70;99.90;;;;;;5150257;27;20023;-35
2023/05/04 02:53:57;;;;;;;12.32;8.32;;;5.60;99.90;;;;;;5140959;27;20038;-36
2023/05/04 02:56:23;;;;;;;11.55;8.10;;;5.70;99.90;;;;;;5145842;27;20461;-38
2023/05/04 02:58:48;;;;;;;10.82;7.70;;;5.70;99.90;;;;;;5139695;27;20038;-39
2023/05/04 03:01:14;;;;;;;11.60;7.93;;;5.70;99.90;;;;;;5149917;27;20045;-32
2023/05/04 03:03:40;;;;;;;13.23;8.80;;;5.70;99.90;;;;;;5142524;27;20117;-36
2023/05/04 03:06:06;;;;;;;11.57;8.13;;;5.80;99.90;;;;;;5148483;27;20027;-34
2023/05/04 03:08:32;;;;;;;11.90;8.07;;;5.70;99.90;;;;;;5142971;27;20056;-37
2023/05/04 03:10:57;;;;;;;12.45;8.75;;;5.70;99.90;;;;;;5139645;27;20043;-35
2023/05/04 03:13:23;;;;;;;11.43;7.85;;;5.80;99.90;;;;;;5148131;27;20042;-37
2023/05/04 03:15:49;;;;;;;12.45;8.65;;;5.80;99.90;;;;;;5147919;27;20084;-33
2023/05/04 03:18:14;;;;;;;12.63;8.40;;;5.80;99.90;;;;;;5145874;27;20547;-33
2023/05/04 03:20:40;;;;;;;14.70;9.38;;;5.80;99.90;;;;;;5143732;27;20030;-35
2023/05/04 03:23:06;;;;;;;11.52;8.88;;;5.80;99.90;;;;;;5133937;27;20038;-35
2023/05/04 03:25:31;;;;;;;12.52;8.10;;;5.80;99.90;;;;;;5143029;27;20035;-35
2023/05/04 03:27:57;;;;;;;12.77;8.63;;;5.80;99.90;;;;;;5144842;27;20552;-34
2023/05/04 03:30:23;;;;;;;15.13;8.27;;;5.80;99.90;;;;;;5164505;27;20038;-37
2023/05/04 03:32:48;;;;;;;17.08;8.85;;;5.70;99.90;;;;;;5146157;27;20046;-35
2023/05/04 03:35:14;;;;;;;12.27;8.85;;;5.80;99.90;;;;;;5145268;27;20063;-36
2023/05/04 03:37:40;;;;;;;12.98;9.10;;;5.80;99.90;;;;;;5150806;27;20045;-35
2023/05/04 03:40:06;;;;;;;14.07;9.00;;;5.80;99.90;;;;;;5138131;27;20038;-35
2023/05/04 03:42:32;;;;;;;11.48;8.23;;;5.90;99.90;;;;;;5153742;27;20406;-35
2023/05/04 03:44:57;;;;;;;14.15;8.70;;;5.80;99.90;;;;;;5147907;27;20026;-35
2023/05/04 03:47:23;;;;;;;16.20;9.30;;;5.80;99.90;;;;;;5146642;27;20035;-35
2023/05/04 03:49:49;;;;;;;13.32;9.25;;;5.90;99.90;;;;;;5148154;27;20219;-37
2023/05/04 03:52:14;;;;;;;14.90;8.95;;;5.90;99.90;;;;;;5148725;27;20030;-36
2023/05/04 03:54:40;;;;;;;15.43;9.23;;;5.90;99.90;;;;;;5150075;27;20034;-35
2023/05/04 03:57:06;;;;;;;13.90;8.98;;;5.80;99.90;;;;;;5149548;27;20037;-37
2023/05/04 03:59:31;;;;;;;15.63;9.35;;;5.80;99.90;;;;;;5146316;27;20026;-38
2023/05/04 04:01:57;;;;;;;15.50;8.38;;;5.80;99.90;;;;;;5146552;27;20063;-36
2023/05/04 04:04:23;;;;;;;14.43;8.82;;;5.90;99.90;;;;;;5140911;27;20109;-35
2023/05/04 04:06:48;;;;;;;14.63;9.32;;;5.80;99.90;;;;;;5147563;27;20110;-38
2023/05/04 04:09:14;;;;;;;14.05;9.70;;;5.90;99.90;;;;;;5144088;27;20038;-35
2023/05/04 04:11:40;;;;;;;14.57;8.68;;;5.90;99.90;;;;;;5149349;27;20041;-34
2023/05/04 04:14:06;;;;;;;15.10;9.18;;;5.90;99.90;;;;;;5168629;27;20425;-37
2023/05/04 04:16:31;;;;;;;11.77;8.60;;;5.80;99.90;;;;;;5150020;27;20042;-39
2023/05/04 04:18:57;;;;;;;15.07;9.55;;;5.90;99.90;;;;;;5166267;27;20399;-35
2023/05/04 04:21:23;;;;;;;15.40;9.30;;;5.80;99.90;;;;;;5146780;27;20037;-35
2023/05/04 04:23:48;;;;;;;16.38;9.38;;;5.80;99.90;;;;;;5144752;27;20078;-37
2023/05/04 04:26:14;;;;;;;13.65;8.80;;;5.90;99.90;;;;;;5141535;27;20031;-35
2023/05/04 04:28:40;;;;;;;13.68;8.98;;;5.90;99.90;;;;;;5143426;27;20029;-35
2023/05/04 04:31:05;;;;;;;13.30;9.00;;;6.00;99.90;;;;;;5153843;27;20041;-36
2023/05/04 04:33:31;;;;;;;13.52;8.95;;;5.90;99.90;;;;;;5173294;27;20030;-37
2023/05/04 04:35:57;;;;;;;16.48;9.45;;;5.90;99.90;;;;;;5148435;27;20514;-37
2023/05/04 04:38:23;;;;;;;17.73;8.93;;;6.00;99.90;;;;;;5142509;27;20447;-35
2023/05/04 04:40:49;;;;;;;14.23;9.20;;;5.90;99.90;;;;;;5152296;27;20376;-35
2023/05/04 04:43:15;;;;;;;10.48;8.25;;;6.00;99.90;;;;;;5150594;27;20049;-34
2023/05/04 04:45:41;;;;;;;12.60;8.73;;;6.00;99.90;;;;;;5136592;27;20031;-36
2023/05/04 04:48:06;;;;;;;12.95;9.68;;;6.00;99.90;;;;;;5144017;27;20031;-35
2023/05/04 04:50:32;;;;;;;15.48;9.65;;;6.40;99.90;;;;;;5150344;27;20114;-35
2023/05/04 04:52:58;;;;;;;13.00;9.52;;;6.10;99.90;;;;;;5151998;27;20041;-35
2023/05/04 04:55:24;;;;;;;14.25;9.38;;;6.10;99.90;;;;;;5151743;27;20067;-36
2023/05/04 04:57:51;;;;;;;15.35;9.88;;;6.10;99.90;;;;;;5127321;27;20064;-35
2023/05/04 05:00:18;;;;;;;12.95;9.15;;;6.10;99.90;;;;;;5144621;27;20312;-35
2023/05/04 05:02:44;;;;;;;17.10;9.65;;;6.20;99.90;;;;;;5146752;27;20609;-35
2023/05/04 05:05:11;;;;;;;15.00;9.82;;;6.10;99.90;;;;;;5131331;27;20112;-36
2023/05/04 05:07:38;;;;;;;15.27;9.35;;;6.20;99.90;;;;;;5145879;27;20479;-35
2023/05/04 05:10:04;;;;;;;14.90;9.15;;;6.30;99.90;;;;;;5146895;27;20030;-35
2023/05/04 05:12:30;;;;;;;15.10;10.00;;;6.30;99.90;;;;;;5151600;27;20084;-36
2023/05/04 05:14:56;;;;;;;15.15;9.75;;;6.30;99.90;;;;;;5146762;27;20061;-34
2023/05/04 05:17:22;;;;;;;14.35;9.30;;;6.40;99.90;;;;;;5148887;27;20113;-34
2023/05/04 05:19:48;;;;;;;15.30;8.88;;;6.50;99.90;;;;;;5151718;27;20026;-35
2023/05/04 05:22:13;;;;;;;13.20;9.18;;;6.50;99.90;;;;;;5146825;27;20490;-35
2023/05/04 05:24:39;;;;;;;13.60;9.15;;;6.50;99.90;;;;;;5150620;27;20035;-35
2023/05/04 05:27:05;;;;;;;14.73;9.88;;;6.60;99.90;;;;;;5151002;27;20501;-36
2023/05/04 05:29:31;;;;;;;14.15;9.50;;;6.60;99.90;;;;;;5150551;27;20026;-35
2023/05/04 05:31:56;;;;;;;15.82;9.02;;;6.70;99.90;;;;;;5142411;27;20038;-37
2023/05/04 05:34:22;;;;;;;17.48;9.68;;;6.70;99.90;;;;;;5155431;27;20045;-36
2023/05/04 05:36:48;;;;;;;15.63;10.18;;;6.80;99.90;;;;;;5148500;27;20045;-35
2023/05/04 05:39:14;;;;;;;16.48;9.95;;;6.80;99.90;;;;;;5136644;27;20079;-39
2023/05/04 05:41:40;;;;;;;18.15;10.88;;;6.80;99.90;;;;;;5151050;27;20034;-33
2023/05/04 05:44:06;;;;;;;11.20;9.57;;;6.90;99.90;;;;;;5150799;27;20027;-36
2023/05/04 05:46:32;;;;;;;16.45;10.13;;;7.00;99.90;;;;;;5144132;27;20139;-38
2023/05/04 05:48:58;;;;;;;16.10;10.15;;;7.10;99.90;;;;;;5151269;27;20038;-36
2023/05/04 05:51:24;;;;;;;15.48;9.48;;;7.10;99.90;;;;;;5142370;27;20026;-36
2023/05/04 05:53:50;;;;;;;13.20;9.07;;;7.10;99.90;;;;;;5143712;27;21224;-36
2023/05/04 05:56:16;;;;;;;17.83;9.95;;;7.20;99.90;;;;;;5149228;27;20073;-36
2023/05/04 05:58:42;;;;;;;14.73;9.55;;;7.30;99.90;;;;;;5143467;27;20031;-35
2023/05/04 06:01:08;;;;;;;14.95;9.73;;;7.40;99.90;;;;;;5152812;27;20037;-35
2023/05/04 06:03:33;;;;;;;17.30;10.68;;;7.50;99.90;;;;;;5148104;27;20037;-37
2023/05/04 06:05:59;;;;;;;16.48;9.90;;;7.60;99.90;;;;;;5148504;27;20480;-37
2023/05/04 06:08:25;;;;;;;14.45;9.90;;;7.70;99.90;;;;;;5148551;27;20109;-35
2023/05/04 06:10:51;;;;;;;14.63;10.30;;;7.70;99.90;;;;;;5144346;27;20159;-36
2023/05/04 06:13:17;;;;;;;16.17;9.65;;;7.80;99.90;;;;;;5143603;27;20027;-36
2023/05/04 06:15:50;;;;;;;12.23;9.48;;;7.90;99.90;;;;;;5144541;27;20038;-35
2023/05/04 06:18:16;;;;;;;14.02;9.85;;;8.00;99.90;;;;;;5145210;27;20031;-36
2023/05/04 06:20:41;;;;;;;14.52;9.85;;;8.10;99.90;;;;;;5136432;27;20126;-35
2023/05/04 06:23:07;;;;;;;13.93;9.95;;;8.20;99.90;;;;;;5148928;27;20042;-39
2023/05/04 06:25:33;;;;;;;13.70;9.80;;;8.30;99.90;;;;;;5143499;27;20034;-36
2023/05/04 06:27:58;;;;;;;16.77;10.63;;;8.40;99.90;;;;;;5152923;27;20038;-35
2023/05/04 06:30:24;;;;;;;12.90;9.80;;;8.40;99.90;;;;;;5148886;27;20499;-37
2023/05/04 06:32:50;;;;;;;15.15;10.35;;;8.40;99.90;;;;;;5147512;27;20046;-33
2023/05/04 06:35:16;;;;;;;13.40;10.50;;;8.60;99.90;;;;;;5147140;27;20046;-37
2023/05/04 06:37:41;;;;;;;14.07;9.95;;;8.60;99.90;;;;;;5143535;27;20071;-35
2023/05/04 06:40:07;;;;;;;15.38;10.90;;;8.70;99.90;;;;;;5144336;27;20122;-35
2023/05/04 06:42:33;;;;;;;15.60;10.10;;;8.70;99.90;;;;;;5146059;27;20049;-37
2023/05/04 06:44:59;;;;;;;14.68;10.30;;;8.90;99.90;;;;;;5150140;27;20113;-36
2023/05/04 06:47:25;;;;;;;15.65;11.25;;;8.90;99.90;;;;;;5143954;27;20042;-36
2023/05/04 06:49:50;;;;;;;13.45;10.23;;;8.90;99.90;;;;;;5143204;27;20038;-35
2023/05/04 06:52:16;;;;;;;11.77;9.63;;;9.00;99.90;;;;;;5138746;27;20027;-35
2023/05/04 06:54:42;;;;;;;13.85;9.73;;;9.10;99.90;;;;;;5140870;27;20483;-35
2023/05/04 06:57:07;;;;;;;16.77;10.30;;;9.10;99.90;;;;;;5144305;27;20041;-35
2023/05/04 06:59:33;;;;;;;13.45;9.85;;;9.20;99.90;;;;;;5144841;27;20030;-35
2023/05/04 07:01:59;;;;;;;15.55;9.88;;;9.30;99.90;;;;;;5147792;27;20034;-35
2023/05/04 07:04:24;;;;;;;12.45;9.73;;;9.40;99.90;;;;;;5148755;27;20042;-36
2023/05/04 07:06:51;;;;;;;13.45;10.27;;;9.50;99.90;;;;;;5167514;27;20022;-36
2023/05/04 07:09:18;;;;;;;12.43;9.85;;;9.60;99.90;;;;;;5146614;27;20156;-35
2023/05/04 07:11:44;;;;;;;12.82;9.63;;;9.70;99.90;;;;;;5148041;27;20035;-35
2023/05/04 07:14:10;;;;;;;15.85;9.15;;;9.90;99.90;;;;;;5150091;27;20035;-36
2023/05/04 07:16:36;;;;;;;12.55;9.35;;;10.10;99.90;;;;;;5151602;27;20095;-35
2023/05/04 07:19:03;;;;;;;14.93;9.63;;;10.20;99.90;;;;;;5145131;27;20035;-35
2023/05/04 07:21:29;;;;;;;14.07;9.07;;;10.30;99.90;;;;;;5148349;27;20087;-35
2023/05/04 07:23:55;;;;;;;10.82;9.02;;;10.60;99.90;;;;;;5151148;27;20433;-38
2023/05/04 07:26:21;;;;;;;12.50;8.90;;;10.70;99.90;;;;;;5152941;27;20460;-36
2023/05/04 07:28:47;;;;;;;12.95;9.00;;;10.90;99.90;;;;;;5141796;27;20037;-40
2023/05/04 07:31:13;;;;;;;12.43;8.40;;;11.10;99.90;;;;;;5149774;27;20403;-36
2023/05/04 07:33:39;;;;;;;13.25;9.15;;;11.20;99.90;;;;;;5152664;27;20479;-36
2023/05/04 07:36:05;;;;;;;11.30;9.00;;;11.50;99.90;;;;;;5144361;27;20090;-36
2023/05/04 07:38:32;;;;;;;11.02;9.15;;;11.70;99.90;;;;;;5150408;27;20447;-34
2023/05/04 07:40:57;;;;;;;12.13;9.43;;;11.80;99.90;;;;;;5127119;27;20073;-34
2023/05/04 07:43:23;;;;;;;16.20;9.18;;;12.10;99.90;;;;;;5145220;27;20099;-35
2023/05/04 07:45:52;;;;;;;12.18;8.25;;;12.30;99.90;;;;;;5152183;27;20087;-37
2023/05/04 07:48:20;;;;;;;14.52;8.55;;;12.30;99.90;;;;;;5175324;27;20038;-33
2023/05/04 07:50:46;;;;;;;9.48;8.38;;;12.40;99.90;;;;;;5148195;27;20504;-37
2023/05/04 07:53:12;;;;;;;10.57;8.52;;;12.60;99.90;;;;;;5147996;27;20045;-35
2023/05/04 07:55:38;;;;;;;12.73;9.13;;;12.60;99.90;;;;;;5143115;27;20094;-35
2023/05/04 07:58:04;;;;;;;11.35;8.90;;;12.70;99.90;;;;;;5156626;27;20034;-35
2023/05/04 08:00:29;;;;;;;11.93;8.77;;;12.90;99.90;;;;;;5152194;27;20068;-38
2023/05/04 08:02:55;;;;;;;11.05;9.02;;;13.20;99.90;;;;;;5143360;27;20031;-35
2023/05/04 08:05:21;;;;;;;13.60;8.85;;;13.20;99.90;;;;;;5148129;27;20034;-35
2023/05/04 08:07:47;;;;;;;10.23;8.05;;;13.40;99.90;;;;;;5145440;27;20045;-36
2023/05/04 08:10:13;;;;;;;9.63;8.40;;;13.60;99.90;;;;;;5153440;27;20488;-35
2023/05/04 08:12:39;;;;;;;10.27;7.60;;;13.80;99.90;;;;;;5149417;27;20066;-35
2023/05/04 08:15:06;;;;;;;9.07;7.80;;;14.00;99.90;;;;;;5146303;27;20034;-36
2023/05/04 08:17:33;;;;;;;11.18;7.85;;;14.20;99.90;;;;;;5149802;27;20411;-37
2023/05/04 08:20:00;;;;;;;10.18;7.95;;;14.40;99.90;;;;;;5140801;27;20031;-36
2023/05/04 08:22:26;;;;;;;10.60;8.15;;;14.70;99.90;;;;;;5145590;27;20058;-36
2023/05/04 08:24:52;;;;;;;9.48;8.20;;;14.90;99.90;;;;;;5149804;27;20077;-37
2023/05/04 08:27:17;;;;;;;9.45;8.45;;;15.10;99.90;;;;;;5145879;27;20099;-36
2023/05/04 08:29:43;;;;;;;10.88;8.20;;;15.10;99.90;;;;;;5145261;27;20114;-36
2023/05/04 08:32:09;;;;;;;10.15;7.63;;;15.30;99.90;;;;;;5149047;27;20109;-35
2023/05/04 08:34:35;;;;;;;10.13;7.80;;;15.60;99.90;;;;;;5142412;27;20038;-36
2023/05/04 08:37:01;;;;;;;8.98;8.07;;;15.80;99.90;;;;;;5155028;27;20117;-36
2023/05/04 08:39:26;;;;;;;9.88;8.15;;;15.80;99.90;;;;;;5153757;27;20126;-37
2023/05/04 08:41:53;;;;;;;11.73;8.13;;;16.10;99.90;;;;;;5134036;27;20491;-37
2023/05/04 08:44:20;;;;;;;11.30;8.23;;;16.30;99.90;;;;;;5148827;27;20396;-37
2023/05/04 08:46:52;;;;;;;9.80;8.45;;;16.30;99.90;;;;;;5147709;27;20034;-37
2023/05/04 08:49:22;;;;;;;8.88;7.68;;;16.50;99.90;;;;;;5150447;27;20083;-36
2023/05/04 08:51:50;;;;;;;11.15;7.80;;;16.80;99.90;;;;;;5143141;27;20105;-36
2023/05/04 08:54:16;;;;;;;12.45;7.97;;;16.90;99.90;;;;;;5146638;27;20030;-34
2023/05/04 08:56:44;;;;;;;11.45;8.57;;;17.30;99.90;;;;;;5143075;27;20037;-35
2023/05/04 08:59:19;;;;;;;10.52;7.95;;;17.30;99.90;;;;;;5150245;27;20034;-36
2023/05/04 09:01:48;;;;;;;10.07;8.25;;;17.30;99.90;;;;;;5145988;27;20444;-36
2023/05/04 09:04:14;;;;;;;12.02;7.65;;;17.50;99.90;;;;;;5150048;27;20034;-34
2023/05/04 09:06:40;;;;;;;9.35;7.95;;;17.90;99.90;;;;;;5143108;27;20039;-37
2023/05/04 09:09:07;;;;;;;10.10;7.60;;;18.00;99.90;;;;;;5155553;27;20565;-36
2023/05/04 09:11:32;;;;;;;10.93;8.35;;;18.10;99.90;;;;;;5152751;27;20568;-37
2023/05/04 09:13:58;;;;;;;11.20;7.55;;;18.30;99.90;;;;;;5152366;27;20074;-36
2023/05/04 09:16:35;;;;;;;10.10;7.45;;;18.60;99.90;;;;;;5140658;27;20035;-38
2023/05/04 09:19:03;;;;;;;9.70;7.60;;;18.50;99.90;;;;;;5144843;27;20491;-38
2023/05/04 09:21:30;;;;;;;11.18;7.38;;;18.60;99.90;;;;;;5144171;27;20038;-36
2023/05/04 09:23:57;;;;;;;10.18;7.82;;;18.70;99.90;;;;;;5151747;27;20130;-39
2023/05/04 09:26:29;;;;;;;10.30;7.72;;;18.70;99.90;;;;;;5151888;27;20030;-36
2023/05/04 09:28:56;;;;;;;9.15;7.32;;;18.50;99.90;;;;;;5155659;27;20137;-40
2023/05/04 09:31:22;;;;;;;7.47;6.70;;;18.80;99.90;;;;;;5151680;27;20031;-36
2023/05/04 09:33:48;;;;;;;9.23;7.40;;;18.90;99.90;;;;;;5148797;27;20034;-36
2023/05/04 09:36:17;;;;;;;8.15;7.07;;;19.20;99.90;;;;;;5142372;27;20090;-40
2023/05/04 09:38:43;;;;;;;8.38;7.20;;;19.40;93.20;;;;;;5152567;27;20495;-38
2023/05/04 09:41:09;;;;;;;9.77;6.95;;;19.60;94.20;;;;;;5138582;27;20037;-38
2023/05/04 09:43:42;;;;;;;8.00;6.20;;;19.70;91.20;;;;;;5141781;27;20096;-37
2023/05/04 09:46:15;;;;;;;;;;;20.10;82.30;;;;;;5139817;27;20030;-35
2023/05/04 09:48:52;;;;;;;6.80;5.80;;;20.20;77.00;;;;;;5141634;27;19958;-37
2023/05/04 09:51:21;;;;;;;6.82;5.57;;;20.50;81.60;;;;;;5145993;27;20030;-36
2023/05/04 09:53:49;;;;;;;9.07;5.93;;;20.90;82.90;;;;;;5147137;27;20645;-39
2023/05/04 09:56:46;;;;;;;6.78;5.57;;;20.80;79.10;;;;;;5153161;27;20031;-38
2023/05/04 09:59:13;;;;;;;6.82;5.70;;;21.30;74.90;;;;;;5149573;27;20084;-37
2023/05/04 10:01:39;;;;;;;8.85;6.22;;;21.10;76.10;;;;;;5155504;27;20038;-39
2023/05/04 10:04:05;;;;;;;8.52;6.40;;;21.10;75.20;;;;;;5152027;27;20038;-40
2023/05/04 10:06:31;;;;;;;7.53;5.95;;;20.90;73.40;;;;;;5138811;27;20031;-39
2023/05/04 10:09:00;;;;;;;7.25;5.45;;;21.10;72.40;;;;;;5152281;27;20033;-38
2023/05/04 10:11:27;;;;;;;6.03;5.53;;;21.50;71.20;;;;;;5149693;27;20090;-38
2023/05/04 10:13:56;;;;;;;6.47;5.22;;;21.50;71.40;;;;;;5151441;27;20042;-39
2023/05/04 10:16:59;;;;;;;8.13;5.95;;;22.20;71.80;;;;;;5142630;27;20035;-36
2023/05/04 10:19:49;;;;;;;8.02;5.95;;;22.20;68.30;;;;;;5139337;27;20061;-38
2023/05/04 10:22:45;;;;;;;6.78;6.07;;;22.50;68.20;;;;;;5142969;27;20041;-36
2023/05/04 10:25:34;;;;;;;6.30;5.68;;;22.20;67.10;;;;;;5140393;27;20034;-40
2023/05/04 10:28:16;;;;;;;6.72;5.55;;;21.90;65.40;;;;;;5139781;27;20046;-35
2023/05/04 10:30:42;;;;;;;6.93;5.35;;;21.90;68.60;;;;;;5140345;27;20533;-38
2023/05/04 10:33:08;;;;;;;6.32;5.32;;;22.40;69.70;;;;;;5150484;27;20026;-39
2023/05/04 10:35:34;;;;;;;9.02;6.07;;;22.70;69.30;;;;;;5144214;27;20113;-40
2023/05/04 10:38:00;;;;;;;8.80;6.28;;;22.80;68.40;;;;;;5169288;27;20061;-37
2023/05/04 10:40:37;;;;;;;7.03;5.35;;;23.20;67.20;;;;;;5146681;27;20070;-37
2023/05/04 10:43:04;;;;;;;5.40;4.85;;;23.60;65.30;;;;;;5136351;27;20083;-39
2023/05/04 10:45:36;;;;;;;8.18;5.32;;;23.20;66.10;;;;;;5142131;27;20546;-39
2023/05/04 10:48:03;;;;;;;7.57;5.13;;;23.60;65.50;;;;;;5138112;27;20087;-39
2023/05/04 10:50:44;;;;;;;5.25;4.68;;;23.40;65.40;;;;;;5143102;27;20069;-38
2023/05/04 10:53:11;;;;;;;6.47;4.78;;;23.60;65.10;;;;;;5144930;27;20385;-37
2023/05/04 10:55:41;;;;;;;6.22;4.60;;;23.50;64.50;;;;;;5143340;27;20042;-38
2023/05/04 10:58:09;;;;;;;6.03;4.45;;;23.50;63.70;;;;;;5148111;27;20539;-37
2023/05/04 11:00:36;;;;;;;4.68;4.20;;;23.90;63.70;;;;;;5145933;27;20030;-37
2023/05/04 11:03:03;;;;;;;6.03;4.63;;;23.70;63.30;;;;;;5150054;27;20364;-36
2023/05/04 11:05:42;;;;;;;6.68;4.72;;;23.50;62.00;;;;;;5145798;27;20073;-40
2023/05/04 11:08:37;;;;;;;6.75;4.82;;;23.70;61.60;;;;;;5142459;27;20027;-39
2023/05/04 11:11:05;;;;;;;5.80;4.82;;;24.00;60.80;;;;;;5134383;27;20506;-35
2023/05/04 11:13:40;;;;;;;5.15;4.28;;;23.70;61.70;;;;;;5161114;27;20427;-37
2023/05/04 11:16:06;;;;;;;4.80;4.30;;;23.90;61.90;;;;;;5143069;27;20394;-37
2023/05/04 11:18:34;;;;;;;3.88;3.50;;;23.50;61.90;;;;;;5148905;27;20125;-39
2023/05/04 11:21:01;;;;;;;5.20;3.78;;;23.80;62.00;;;;;;5146591;27;20171;-36
2023/05/04 11:23:27;;;;;;;5.90;4.03;;;24.00;61.10;;;;;;5162465;27;20122;-37
2023/05/04 11:25:53;;;;;;;8.95;4.10;;;24.20;60.70;;;;;;5145387;27;20090;-39
2023/05/04 11:28:30;;;;;;;4.57;4.10;;;24.40;60.00;;;;;;5146661;27;20050;-38
2023/05/04 11:30:56;;;;;;;6.43;4.30;;;25.30;58.60;;;;;;5147865;27;20030;-36
2023/05/04 11:33:22;;;;;;;6.38;4.07;;;25.30;43.00;;;;;;5168008;27;20395;-37
2023/05/04 11:35:47;;;;;;;5.38;4.22;;;25.70;43.40;;;;;;5146754;27;20042;-38
2023/05/04 11:38:20;;;;;;;5.28;4.00;;;25.40;41.70;;;;;;5154026;27;20066;-38
2023/05/04 11:40:47;;;;;;;4.40;4.00;;;25.20;40.30;;;;;;5153755;27;20034;-36
2023/05/04 11:43:13;;;;;;;6.28;3.97;;;24.90;40.80;;;;;;5141928;27;20039;-37
2023/05/04 11:45:40;;;;;;;5.53;3.75;;;24.40;41.10;;;;;;5145729;27;20113;-37
2023/05/04 11:48:07;;;;;;;5.53;3.63;;;24.70;41.10;;;;;;5144915;27;20038;-37
2023/05/04 11:50:34;;;;;;;4.97;3.58;;;25.00;41.50;;;;;;5142263;27;20069;-37
2023/05/04 11:53:11;;;;;;;6.05;3.80;;;25.30;41.30;;;;;;5139027;27;20038;-43
2023/05/04 11:55:37;;;;;;;4.97;4.00;;;25.30;41.40;;;;;;5153438;27;20085;-36
2023/05/04 11:58:08;;;;;;;4.60;4.20;;;25.40;40.20;;;;;;5147537;27;20053;-37
2023/05/04 12:00:37;;;;;;;6.25;4.43;;;25.20;39.50;;;;;;5152693;27;20035;-39
2023/05/04 12:03:06;;;;;;;6.18;3.72;;;25.10;40.50;;;;;;5151227;27;20088;-36
2023/05/04 12:05:34;;;;;;;5.28;3.67;;;25.20;40.90;;;;;;5149472;27;20507;-37
2023/05/04 12:08:02;;;;;;;4.63;3.70;;;25.40;41.10;;;;;;5146218;27;20752;-39
2023/05/04 12:10:29;;;;;;;4.78;3.20;;;25.50;40.30;;;;;;5157471;27;20034;-36
2023/05/04 12:12:55;;;;;;;3.85;3.13;;;26.30;40.40;;;;;;5155014;27;20038;-38
2023/05/04 12:15:31;;;;;;;4.25;3.85;;;27.20;56.70;;;;;;5149610;27;20038;-36
2023/05/04 12:17:57;;;;;;;7.20;4.28;;;27.20;54.80;;;;;;5158416;27;20077;-40
2023/05/04 12:20:29;;;;;;;4.07;3.35;;;27.00;54.80;;;;;;5150002;27;20099;-37
2023/05/04 12:22:56;;;;;;;4.73;3.23;;;26.90;54.10;;;;;;5149289;27;20079;-40
2023/05/04 12:25:23;;;;;;;5.68;3.70;;;27.50;55.10;;;;;;5150603;27;20777;-39
2023/05/04 12:27:49;;;;;;;5.30;3.30;;;27.00;54.90;;;;;;5152076;27;20029;-38
2023/05/04 12:30:16;;;;;;;5.80;3.25;;;26.50;54.00;;;;;;5155707;27;20657;-40
2023/05/04 12:32:42;;;;;;;7.65;3.45;;;26.80;54.70;;;;;;5150044;27;20131;-37
2023/05/04 12:35:08;;;;;;;3.83;3.50;;;26.70;54.70;;;;;;5146926;27;20041;-38
2023/05/04 12:37:34;;;;;;;4.65;3.20;;;26.70;54.20;;;;;;5150108;27;20437;-37
2023/05/04 12:40:01;;;;;;;3.92;2.70;;;26.50;54.20;;;;;;5149330;27;20026;-38
2023/05/04 12:42:27;;;;;;;4.70;3.20;;;26.40;55.00;;;;;;5148840;27;20046;-39
2023/05/04 12:44:53;;;;;;;4.78;3.50;;;26.80;55.80;;;;;;5155588;27;20547;-39
2023/05/04 12:47:22;;;;;;;3.72;3.13;;;26.50;54.60;;;;;;5154178;27;20030;-39